Almi Sky — D5CQ7 — position and weather

sailwx.info

Track history (hours):
 
Tides and Currents Weather Stations Pressure Air Temp Water Temp Dewpoint Dewpoint Depression Visibility Wind Speed Wind Dir Waves Ship Positions

Almi Sky

Last reported at 2017-Dec-18 09:00 UTC. Time now 2017-Dec-18 09:12 UTC.
Position N 44°29' E 037°51'.

Length 274 m; draft 9.6 m.

Type: Ship (hazmat cat D). MMSI: 636015761.

Date/timePositionNaut miles runAvg speedWind from/ knotsBaromVisibWave heightAir tempDewpointWater temp
2017-Dec-18 09:00N 44°29' E 037°51'1 1.3
2017-Dec-18 08:30N 44°29' E 037°51'2 3.5
2017-Dec-18 08:00N 44°30' E 037°49'510.4
2017-Dec-18 07:30N 44°32' E 037°42'612.8
2017-Dec-18 07:00N 44°34' E 037°34'4 7.1
2017-Dec-18 06:27N 44°36' E 037°29'1 1.6
2017-Dec-18 06:00N 44°35' E 037°30'1 1.4
2017-Dec-18 05:30N 44°35' E 037°31'1 1.5
2017-Dec-18 04:55N 44°35' E 037°32'1 1.6
2017-Dec-18 04:29N 44°35' E 037°33'1 1.5
2017-Dec-18 04:00N 44°35' E 037°34'1 1.5
2017-Dec-18 03:30N 44°34' E 037°35'1 1.5
2017-Dec-18 03:00N 44°34' E 037°36'1 1.5
2017-Dec-18 02:30N 44°34' E 037°37'1 1.3
2017-Dec-18 02:00N 44°34' E 037°38'1 1.1
2017-Dec-18 01:30N 44°34' E 037°39'1 1.3
2017-Dec-18 01:00N 44°33' E 037°40'1 1.3
2017-Dec-18 00:30N 44°33' E 037°40'1 1.3
2017-Dec-18 00:00N 44°33' E 037°41'1 1.2
2017-Dec-17 23:30N 44°32' E 037°42'1 1.2
2017-Dec-17 23:00N 44°32' E 037°43'1 1.3
2017-Dec-17 22:30N 44°32' E 037°43'1 1.4
2017-Dec-17 22:00N 44°31' E 037°44'1 1.4
2017-Dec-17 21:30N 44°31' E 037°45'1 1.4
2017-Dec-17 21:00N 44°31' E 037°46'1 1.4
2017-Dec-17 20:30N 44°30' E 037°47'1 1.3
2017-Dec-17 20:00N 44°30' E 037°48'1 1.4
2017-Dec-17 19:30N 44°30' E 037°48'1 1.5
2017-Dec-17 19:00N 44°29' E 037°49'1 1.6
2017-Dec-17 18:30N 44°29' E 037°50'1 1.5
2017-Dec-17 18:00N 44°29' E 037°52'1 1.5
2017-Dec-17 17:30N 44°29' E 037°53'1 1.6
2017-Dec-17 17:00N 44°29' E 037°54'1 2.6
2017-Dec-17 16:30N 44°29' E 037°52'4 7.6
2017-Dec-17 16:00N 44°26' E 037°48'1 2.2
2017-Dec-17 15:30N 44°26' E 037°49'1 1.8
2017-Dec-17 15:00N 44°26' E 037°51'1 1.8
2017-Dec-17 14:30N 44°26' E 037°52'1 2.0
2017-Dec-17 14:00N 44°27' E 037°52'4 8.4
2017-Dec-17 13:30N 44°29' E 037°47'510.6
2017-Dec-17 13:00N 44°34' E 037°43'0 0.9
2017-Dec-17 12:30N 44°34' E 037°44'1 1.1
2017-Dec-17 12:00N 44°34' E 037°44'1 1.1
2017-Dec-17 11:30N 44°34' E 037°45'1 1.1
2017-Dec-17 11:00N 44°34' E 037°46'1 1.1
2017-Dec-17 10:30N 44°33' E 037°46'1 1.1
2017-Dec-17 10:00N 44°33' E 037°47'0 0.9
2017-Dec-17 09:30N 44°33' E 037°47'0 0.9
2017-Dec-17 09:00N 44°32' E 037°48'0 1.0
2017-Dec-17 08:30N 44°32' E 037°49'1 1.1
2017-Dec-17 08:00N 44°32' E 037°49'1 1.3
2017-Dec-17 07:30N 44°32' E 037°50'1 2.7
2017-Dec-17 07:00N 44°32' E 037°48'510.7
2017-Dec-17 06:30N 44°32' E 037°41'3 6.6
2017-Dec-17 06:00N 44°30' E 037°37'1 1.1
2017-Dec-17 05:30N 44°31' E 037°37'2 3.8
2017-Dec-17 05:00N 44°29' E 037°36'1 2.4
2017-Dec-17 04:30N 44°29' E 037°37'1 1.8
2017-Dec-17 04:00N 44°29' E 037°38'1 1.6
2017-Dec-17 03:30N 44°29' E 037°39'1 1.6
2017-Dec-17 03:00N 44°29' E 037°41'1 1.5
2017-Dec-17 02:30N 44°29' E 037°42'4 8.5
2017-Dec-17 02:00N 44°30' E 037°36'611.6
2017-Dec-17 01:30N 44°32' E 037°28'611.3
2017-Dec-17 01:00N 44°35' E 037°21'2 0.7
2017-Dec-16 22:30N 44°36' E 037°20'1 1.7
2017-Dec-16 21:51N 44°36' E 037°21'1 1.6
2017-Dec-16 21:30N 44°36' E 037°22'2 1.6
2017-Dec-16 19:59N 44°35' E 037°25'1 1.7
2017-Dec-16 19:07N 44°34' E 037°27'0 1.7
2017-Dec-16 19:00N 44°34' E 037°27'1 1.7
2017-Dec-16 18:26N 44°34' E 037°28'1 1.7
2017-Dec-16 18:00N 44°33' E 037°29'1 1.7
2017-Dec-16 17:30N 44°33' E 037°30'1 1.8
2017-Dec-16 17:00N 44°32' E 037°31'1 2.0
2017-Dec-16 16:30N 44°32' E 037°32'1 2.1
2017-Dec-16 16:00N 44°31' E 037°34'1 2.1
2017-Dec-16 15:30N 44°31' E 037°35'1 2.0
2017-Dec-16 15:00N 44°31' E 037°37'1 2.0
2017-Dec-16 14:30N 44°31' E 037°38'1 2.0
2017-Dec-16 14:00N 44°30' E 037°39'1 1.9
2017-Dec-16 13:30N 44°30' E 037°41'1 1.7
2017-Dec-16 13:00N 44°30' E 037°42'1 1.7
2017-Dec-16 12:30N 44°29' E 037°43'1 1.8
2017-Dec-16 12:00N 44°29' E 037°44'1 1.8
2017-Dec-16 11:30N 44°29' E 037°45'1 2.3
2017-Dec-16 11:00N 44°29' E 037°47'1 1.5
2017-Dec-16 10:30N 44°29' E 037°46'3 5.5
2017-Dec-16 10:00N 44°29' E 037°42'510.8
2017-Dec-16 09:30N 44°30' E 037°35'611.1
2017-Dec-16 09:00N 44°32' E 037°28'611.2
2017-Dec-16 08:30N 44°34' E 037°20'4 9.1
2017-Dec-16 08:00N 44°36' E 037°15'1 2.0
2017-Dec-16 07:19N 44°37' E 037°16'1 2.2
2017-Dec-16 07:00N 44°36' E 037°17'1 2.2
2017-Dec-16 06:25N 44°36' E 037°19'1 2.0
2017-Dec-16 05:59N 44°36' E 037°20'1 1.9
2017-Dec-16 05:22N 44°36' E 037°22'1 1.9
2017-Dec-16 04:57N 44°36' E 037°23'4 1.9
2017-Dec-16 03:00N 44°35' E 037°28'2 1.9
2017-Dec-16 02:13N 44°35' E 037°30'0 1.8
2017-Dec-16 01:58N 44°34' E 037°31'1 1.7
2017-Dec-16 01:30N 44°34' E 037°32'1 1.7
2017-Dec-16 01:00N 44°34' E 037°33'1 1.8
2017-Dec-16 00:30N 44°33' E 037°34'1 1.7
2017-Dec-16 00:00N 44°33' E 037°35'1 1.7
2017-Dec-15 23:30N 44°32' E 037°36'1 1.9
2017-Dec-15 23:00N 44°32' E 037°37'1 2.0
2017-Dec-15 22:30N 44°31' E 037°38'1 2.0
2017-Dec-15 22:00N 44°31' E 037°39'1 1.9
2017-Dec-15 21:30N 44°30' E 037°40'1 1.8
2017-Dec-15 21:00N 44°30' E 037°42'1 1.6
2017-Dec-15 20:30N 44°29' E 037°42'1 1.7
2017-Dec-15 20:00N 44°29' E 037°43'1 1.8
2017-Dec-15 19:30N 44°28' E 037°45'1 1.8
2017-Dec-15 19:00N 44°28' E 037°46'1 1.9
2017-Dec-15 18:30N 44°27' E 037°47'1223.4
2017-Dec-15 17:59N 44°35' E 038°01'0 0.0
2017-Dec-15 17:30N 44°35' E 038°01'0 0.0
2017-Dec-15 17:00N 44°35' E 038°01'1121.6
2017-Dec-15 16:30N 44°26' E 037°52'1 1.9
2017-Dec-15 16:00N 44°26' E 037°53'1 1.9
2017-Dec-15 15:30N 44°25' E 037°54'1 1.7
2017-Dec-15 15:00N 44°25' E 037°55'1 2.1
2017-Dec-15 14:25N 44°25' E 037°54'4 9.5
2017-Dec-15 14:00N 44°27' E 037°49'612.0
2017-Dec-15 13:30N 44°31' E 037°42'510.6
2017-Dec-15 13:00N 44°34' E 037°37'0 0.5
2017-Dec-15 12:30N 44°35' E 037°37'1 1.4
2017-Dec-15 12:00N 44°34' E 037°38'1 1.5
2017-Dec-15 11:30N 44°33' E 037°38'1 1.7
2017-Dec-15 11:00N 44°33' E 037°39'1 2.0
2017-Dec-15 10:30N 44°32' E 037°39'1 2.1
2017-Dec-15 10:00N 44°31' E 037°40'1 2.0
2017-Dec-15 09:30N 44°30' E 037°41'1 2.0
2017-Dec-15 09:01N 44°30' E 037°42'1 2.0
2017-Dec-15 08:30N 44°29' E 037°44'1426.0
2017-Dec-15 07:59N 44°35' E 038°01'0 0.0
2017-Dec-15 07:30N 44°35' E 038°01'0 0.0
2017-Dec-15 07:00N 44°35' E 038°01'0 0.0
2017-Dec-15 06:30N 44°35' E 038°01'1223.1
2017-Dec-15 06:00N 44°27' E 037°50'1 1.8
2017-Dec-15 05:30N 44°26' E 037°51'1 2.0
2017-Dec-15 05:00N 44°26' E 037°52'1 2.0
2017-Dec-15 04:30N 44°26' E 037°53'2 3.1
2017-Dec-15 03:54N 44°28' E 037°53'4 2.9
2017-Dec-15 02:30N 44°31' E 037°51'1 0.9
2017-Dec-15 01:00N 44°30' E 037°51'1 1.2
2017-Dec-15 00:30N 44°29' E 037°51'3 0.4
2017-Dec-14 18:30N 44°31' E 037°48'1 1.1
2017-Dec-14 18:00N 44°31' E 037°48'1 1.3
2017-Dec-14 17:30N 44°30' E 037°48'1 1.2
2017-Dec-14 17:01N 44°29' E 037°49'1 1.1
2017-Dec-14 16:31N 44°29' E 037°49'3 6.5
2017-Dec-14 16:01N 44°32' E 037°48'6 6.2
2017-Dec-14 15:01N 44°37' E 037°43'1 1.9
2017-Dec-14 14:31N 44°37' E 037°45'0 0.6
2017-Dec-14 14:01N 44°37' E 037°45'1 1.7
2017-Dec-14 13:31N 44°37' E 037°44'1 1.3
2017-Dec-14 13:01N 44°38' E 037°44'1 1.3
2017-Dec-14 12:31N 44°37' E 037°44'0 0.4
2017-Dec-14 12:00N 44°37' E 037°43'1 2.4
2017-Dec-14 11:31N 44°37' E 037°42'1 2.0
2017-Dec-14 11:01N 44°36' E 037°41'1 2.8
2017-Dec-14 10:30N 44°35' E 037°40'2 3.2
2017-Dec-14 10:01N 44°33' E 037°40'2 3.6
2017-Dec-14 09:31N 44°31' E 037°40'3 6.4
2017-Dec-14 09:01N 44°28' E 037°40'4 7.9
2017-Dec-14 08:31N 44°24' E 037°40'4 8.5
2017-Dec-14 08:01N 44°20' E 037°40'1 1.9
2017-Dec-14 07:31N 44°21' E 037°40'2 3.2
2017-Dec-14 07:00N 44°19' E 037°39'1 1.0
2017-Dec-14 06:31N 44°19' E 037°39'1 1.1
2017-Dec-14 06:01N 44°18' E 037°39'2345.4
2017-Dec-14 05:30N 44°35' E 038°01'0 0.3
2017-Dec-14 05:01N 44°35' E 038°01'2447.4
2017-Dec-14 04:30N 44°17' E 037°39'2446.3
2017-Dec-14 03:59N 44°35' E 038°01'0 0.0
2017-Dec-14 03:31N 44°35' E 038°01'0 0.0
2017-Dec-14 03:00N 44°35' E 038°01'2551.0
2017-Dec-14 02:30N 44°15' E 037°38'0 0.7
2017-Dec-14 02:01N 44°15' E 037°39'0 0.6
2017-Dec-14 01:31N 44°15' E 037°39'0 0.6
2017-Dec-14 01:00N 44°15' E 037°39'0 0.6
2017-Dec-14 00:30N 44°14' E 037°39'0 0.5
2017-Dec-14 00:00N 44°14' E 037°39'0 0.3
2017-Dec-13 23:31N 44°14' E 037°39'0 0.1
2017-Dec-13 22:43N 44°14' E 037°39'0 0.2
2017-Dec-13 22:31N 44°14' E 037°39'0 0.2
2017-Dec-13 21:58N 44°14' E 037°39'0 0.3
2017-Dec-13 21:30N 44°14' E 037°39'0 0.3
2017-Dec-13 21:01N 44°14' E 037°39'0 0.4
2017-Dec-13 20:30N 44°14' E 037°39'2 1.3
2017-Dec-13 18:58N 44°16' E 037°39'4 7.5
2017-Dec-13 18:29N 44°20' E 037°39'611.8
2017-Dec-13 18:00N 44°25' E 037°36'1 1.3
2017-Dec-13 17:31N 44°25' E 037°37'0 0.9
2017-Dec-13 17:01N 44°25' E 037°37'0 0.9
2017-Dec-13 16:31N 44°25' E 037°37'0 0.7
2017-Dec-13 16:00N 44°24' E 037°38'0 0.6
2017-Dec-13 15:30N 44°24' E 037°38'0 0.4
2017-Dec-13 15:00N 44°24' E 037°38'0 0.6
2017-Dec-13 14:30N 44°24' E 037°38'1 1.1
2017-Dec-13 14:01N 44°24' E 037°39'1 1.7
2017-Dec-13 13:31N 44°25' E 037°40'3 6.0
2017-Dec-13 13:01N 44°25' E 037°36'612.4
2017-Dec-13 12:30N 44°25' E 037°27'612.9
2017-Dec-13 12:01N 44°21' E 037°20'612.7
2017-Dec-13 11:30N 44°18' E 037°12'612.5
2017-Dec-13 11:01N 44°15' E 037°05'612.4
2017-Dec-13 10:31N 44°12' E 036°57'612.5
2017-Dec-13 10:01N 44°09' E 036°49'712.7
2017-Dec-13 09:26N 44°06' E 036°40'612.8
2017-Dec-13 08:57N 44°03' E 036°33'512.2
2017-Dec-13 08:30N 44°01' E 036°26'612.5
2017-Dec-13 08:00N 43°59' E 036°17'612.8
2017-Dec-13 07:31N 43°57' E 036°09'612.8
2017-Dec-13 07:01N 43°54' E 036°01'713.1
2017-Dec-13 06:30N 43°51' E 035°53'713.6
2017-Dec-13 05:59N 43°48' E 035°44'34113.7
2017-Dec-12 05:09N 41°02' E 029°00'210.9
2017-Dec-12 04:56N 40°59' E 028°60'3 7.3
2017-Dec-12 04:30N 40°56' E 028°60'3 6.8
2017-Dec-12 03:59N 40°53' E 029°01'510.0
2017-Dec-12 03:30N 40°49' E 029°04'3 5.1
2017-Dec-12 02:59N 40°47' E 029°06'1 1.6
2017-Dec-12 02:30N 40°47' E 029°05'1 1.9
2017-Dec-12 01:57N 40°48' E 029°04'1 2.0
2017-Dec-12 01:30N 40°49' E 029°03'1 1.9
2017-Dec-12 00:59N 40°49' E 029°02'0 1.0
2017-Dec-12 00:30N 40°49' E 029°03'0 1.0
2017-Dec-12 00:00N 40°49' E 029°03'0 1.0
2017-Dec-11 23:30N 40°48' E 029°03'1 2.4
2017-Dec-11 23:00N 40°47' E 029°04'2 4.9
2017-Dec-11 22:30N 40°45' E 029°06'2 4.2
2017-Dec-11 22:00N 40°43' E 029°07'1 1.6
2017-Dec-11 21:30N 40°42' E 029°07'1 1.8
2017-Dec-11 21:00N 40°43' E 029°06'1 1.1
2017-Dec-11 20:30N 40°43' E 029°06'1 1.1
2017-Dec-11 20:00N 40°44' E 029°05'1 1.2
2017-Dec-11 19:27N 40°44' E 029°05'1 1.2
2017-Dec-11 19:00N 40°44' E 029°05'1 1.3
2017-Dec-11 18:30N 40°45' E 029°04'1 1.7
2017-Dec-11 17:59N 40°45' E 029°03'4 7.4
2017-Dec-11 17:30N 40°47' E 028°59'713.7
2017-Dec-11 17:00N 40°50' E 028°50'814.4
2017-Dec-11 16:27N 40°50' E 028°40'  
Track history (hours):
 
Tides and Currents Weather Stations Pressure Air Temp Water Temp Dewpoint Dewpoint Depression Visibility Wind Speed Wind Dir Waves Ship Positions

Almi Sky

Last reported at 2017-Dec-18 09:00 UTC. Time now 2017-Dec-18 09:12 UTC.
Position N 44°29' E 037°51'.

Length 274 m; draft 9.6 m.

Type: Ship (hazmat cat D). MMSI: 636015761.

Date/timePositionNaut miles runAvg speedWind from/ knotsBaromVisibWave heightAir tempDewpointWater temp
2017-Dec-18 09:00N 44°29' E 037°51'1 1.3
2017-Dec-18 08:30N 44°29' E 037°51'2 3.5
2017-Dec-18 08:00N 44°30' E 037°49'510.4
2017-Dec-18 07:30N 44°32' E 037°42'612.8
2017-Dec-18 07:00N 44°34' E 037°34'4 7.1
2017-Dec-18 06:27N 44°36' E 037°29'1 1.6
2017-Dec-18 06:00N 44°35' E 037°30'1 1.4
2017-Dec-18 05:30N 44°35' E 037°31'1 1.5
2017-Dec-18 04:55N 44°35' E 037°32'1 1.6
2017-Dec-18 04:29N 44°35' E 037°33'1 1.5
2017-Dec-18 04:00N 44°35' E 037°34'1 1.5
2017-Dec-18 03:30N 44°34' E 037°35'1 1.5
2017-Dec-18 03:00N 44°34' E 037°36'1 1.5
2017-Dec-18 02:30N 44°34' E 037°37'1 1.3
2017-Dec-18 02:00N 44°34' E 037°38'1 1.1
2017-Dec-18 01:30N 44°34' E 037°39'1 1.3
2017-Dec-18 01:00N 44°33' E 037°40'1 1.3
2017-Dec-18 00:30N 44°33' E 037°40'1 1.3
2017-Dec-18 00:00N 44°33' E 037°41'1 1.2
2017-Dec-17 23:30N 44°32' E 037°42'1 1.2
2017-Dec-17 23:00N 44°32' E 037°43'1 1.3
2017-Dec-17 22:30N 44°32' E 037°43'1 1.4
2017-Dec-17 22:00N 44°31' E 037°44'1 1.4
2017-Dec-17 21:30N 44°31' E 037°45'1 1.4
2017-Dec-17 21:00N 44°31' E 037°46'1 1.4
2017-Dec-17 20:30N 44°30' E 037°47'1 1.3
2017-Dec-17 20:00N 44°30' E 037°48'1 1.4
2017-Dec-17 19:30N 44°30' E 037°48'1 1.5
2017-Dec-17 19:00N 44°29' E 037°49'1 1.6
2017-Dec-17 18:30N 44°29' E 037°50'1 1.5
2017-Dec-17 18:00N 44°29' E 037°52'1 1.5
2017-Dec-17 17:30N 44°29' E 037°53'1 1.6
2017-Dec-17 17:00N 44°29' E 037°54'1 2.6
2017-Dec-17 16:30N 44°29' E 037°52'4 7.6
2017-Dec-17 16:00N 44°26' E 037°48'1 2.2
2017-Dec-17 15:30N 44°26' E 037°49'1 1.8
2017-Dec-17 15:00N 44°26' E 037°51'1 1.8
2017-Dec-17 14:30N 44°26' E 037°52'1 2.0
2017-Dec-17 14:00N 44°27' E 037°52'4 8.4
2017-Dec-17 13:30N 44°29' E 037°47'510.6
2017-Dec-17 13:00N 44°34' E 037°43'0 0.9
2017-Dec-17 12:30N 44°34' E 037°44'1 1.1
2017-Dec-17 12:00N 44°34' E 037°44'1 1.1
2017-Dec-17 11:30N 44°34' E 037°45'1 1.1
2017-Dec-17 11:00N 44°34' E 037°46'1 1.1
2017-Dec-17 10:30N 44°33' E 037°46'1 1.1
2017-Dec-17 10:00N 44°33' E 037°47'0 0.9
2017-Dec-17 09:30N 44°33' E 037°47'0 0.9
2017-Dec-17 09:00N 44°32' E 037°48'0 1.0
2017-Dec-17 08:30N 44°32' E 037°49'1 1.1
2017-Dec-17 08:00N 44°32' E 037°49'1 1.3
2017-Dec-17 07:30N 44°32' E 037°50'1 2.7
2017-Dec-17 07:00N 44°32' E 037°48'510.7
2017-Dec-17 06:30N 44°32' E 037°41'3 6.6
2017-Dec-17 06:00N 44°30' E 037°37'1 1.1
2017-Dec-17 05:30N 44°31' E 037°37'2 3.8
2017-Dec-17 05:00N 44°29' E 037°36'1 2.4
2017-Dec-17 04:30N 44°29' E 037°37'1 1.8
2017-Dec-17 04:00N 44°29' E 037°38'1 1.6
2017-Dec-17 03:30N 44°29' E 037°39'1 1.6
2017-Dec-17 03:00N 44°29' E 037°41'1 1.5
2017-Dec-17 02:30N 44°29' E 037°42'4 8.5
2017-Dec-17 02:00N 44°30' E 037°36'611.6
2017-Dec-17 01:30N 44°32' E 037°28'611.3
2017-Dec-17 01:00N 44°35' E 037°21'2 0.7
2017-Dec-16 22:30N 44°36' E 037°20'1 1.7
2017-Dec-16 21:51N 44°36' E 037°21'1 1.6
2017-Dec-16 21:30N 44°36' E 037°22'2 1.6
2017-Dec-16 19:59N 44°35' E 037°25'1 1.7
2017-Dec-16 19:07N 44°34' E 037°27'0 1.7
2017-Dec-16 19:00N 44°34' E 037°27'1 1.7
2017-Dec-16 18:26N 44°34' E 037°28'1 1.7
2017-Dec-16 18:00N 44°33' E 037°29'1 1.7
2017-Dec-16 17:30N 44°33' E 037°30'1 1.8
2017-Dec-16 17:00N 44°32' E 037°31'1 2.0
2017-Dec-16 16:30N 44°32' E 037°32'1 2.1
2017-Dec-16 16:00N 44°31' E 037°34'1 2.1
2017-Dec-16 15:30N 44°31' E 037°35'1 2.0
2017-Dec-16 15:00N 44°31' E 037°37'1 2.0
2017-Dec-16 14:30N 44°31' E 037°38'1 2.0
2017-Dec-16 14:00N 44°30' E 037°39'1 1.9
2017-Dec-16 13:30N 44°30' E 037°41'1 1.7
2017-Dec-16 13:00N 44°30' E 037°42'1 1.7
2017-Dec-16 12:30N 44°29' E 037°43'1 1.8
2017-Dec-16 12:00N 44°29' E 037°44'1 1.8
2017-Dec-16 11:30N 44°29' E 037°45'1 2.3
2017-Dec-16 11:00N 44°29' E 037°47'1 1.5
2017-Dec-16 10:30N 44°29' E 037°46'3 5.5
2017-Dec-16 10:00N 44°29' E 037°42'510.8
2017-Dec-16 09:30N 44°30' E 037°35'611.1
2017-Dec-16 09:00N 44°32' E 037°28'611.2
2017-Dec-16 08:30N 44°34' E 037°20'4 9.1
2017-Dec-16 08:00N 44°36' E 037°15'1 2.0
2017-Dec-16 07:19N 44°37' E 037°16'1 2.2
2017-Dec-16 07:00N 44°36' E 037°17'1 2.2
2017-Dec-16 06:25N 44°36' E 037°19'1 2.0
2017-Dec-16 05:59N 44°36' E 037°20'1 1.9
2017-Dec-16 05:22N 44°36' E 037°22'1 1.9
2017-Dec-16 04:57N 44°36' E 037°23'4 1.9
2017-Dec-16 03:00N 44°35' E 037°28'2 1.9
2017-Dec-16 02:13N 44°35' E 037°30'0 1.8
2017-Dec-16 01:58N 44°34' E 037°31'1 1.7
2017-Dec-16 01:30N 44°34' E 037°32'1 1.7
2017-Dec-16 01:00N 44°34' E 037°33'1 1.8
2017-Dec-16 00:30N 44°33' E 037°34'1 1.7
2017-Dec-16 00:00N 44°33' E 037°35'1 1.7
2017-Dec-15 23:30N 44°32' E 037°36'1 1.9
2017-Dec-15 23:00N 44°32' E 037°37'1 2.0
2017-Dec-15 22:30N 44°31' E 037°38'1 2.0
2017-Dec-15 22:00N 44°31' E 037°39'1 1.9
2017-Dec-15 21:30N 44°30' E 037°40'1 1.8
2017-Dec-15 21:00N 44°30' E 037°42'1 1.6
2017-Dec-15 20:30N 44°29' E 037°42'1 1.7
2017-Dec-15 20:00N 44°29' E 037°43'1 1.8
2017-Dec-15 19:30N 44°28' E 037°45'1 1.8
2017-Dec-15 19:00N 44°28' E 037°46'1 1.9
2017-Dec-15 18:30N 44°27' E 037°47'1223.4
2017-Dec-15 17:59N 44°35' E 038°01'0 0.0
2017-Dec-15 17:30N 44°35' E 038°01'0 0.0
2017-Dec-15 17:00N 44°35' E 038°01'1121.6
2017-Dec-15 16:30N 44°26' E 037°52'1 1.9
2017-Dec-15 16:00N 44°26' E 037°53'1 1.9
2017-Dec-15 15:30N 44°25' E 037°54'1 1.7
2017-Dec-15 15:00N 44°25' E 037°55'1 2.1
2017-Dec-15 14:25N 44°25' E 037°54'4 9.5
2017-Dec-15 14:00N 44°27' E 037°49'612.0
2017-Dec-15 13:30N 44°31' E 037°42'510.6
2017-Dec-15 13:00N 44°34' E 037°37'0 0.5
2017-Dec-15 12:30N 44°35' E 037°37'1 1.4
2017-Dec-15 12:00N 44°34' E 037°38'1 1.5
2017-Dec-15 11:30N 44°33' E 037°38'1 1.7
2017-Dec-15 11:00N 44°33' E 037°39'1 2.0
2017-Dec-15 10:30N 44°32' E 037°39'1 2.1
2017-Dec-15 10:00N 44°31' E 037°40'1 2.0
2017-Dec-15 09:30N 44°30' E 037°41'1 2.0
2017-Dec-15 09:01N 44°30' E 037°42'1 2.0
2017-Dec-15 08:30N 44°29' E 037°44'1426.0
2017-Dec-15 07:59N 44°35' E 038°01'0 0.0
2017-Dec-15 07:30N 44°35' E 038°01'0 0.0
2017-Dec-15 07:00N 44°35' E 038°01'0 0.0
2017-Dec-15 06:30N 44°35' E 038°01'1223.1
2017-Dec-15 06:00N 44°27' E 037°50'1 1.8
2017-Dec-15 05:30N 44°26' E 037°51'1 2.0
2017-Dec-15 05:00N 44°26' E 037°52'1 2.0
2017-Dec-15 04:30N 44°26' E 037°53'2 3.1
2017-Dec-15 03:54N 44°28' E 037°53'4 2.9
2017-Dec-15 02:30N 44°31' E 037°51'1 0.9
2017-Dec-15 01:00N 44°30' E 037°51'1 1.2
2017-Dec-15 00:30N 44°29' E 037°51'3 0.4
2017-Dec-14 18:30N 44°31' E 037°48'1 1.1
2017-Dec-14 18:00N 44°31' E 037°48'1 1.3
2017-Dec-14 17:30N 44°30' E 037°48'1 1.2
2017-Dec-14 17:01N 44°29' E 037°49'1 1.1
2017-Dec-14 16:31N 44°29' E 037°49'3 6.5
2017-Dec-14 16:01N 44°32' E 037°48'6 6.2
2017-Dec-14 15:01N 44°37' E 037°43'1 1.9
2017-Dec-14 14:31N 44°37' E 037°45'0 0.6
2017-Dec-14 14:01N 44°37' E 037°45'1 1.7
2017-Dec-14 13:31N 44°37' E 037°44'1 1.3
2017-Dec-14 13:01N 44°38' E 037°44'1 1.3
2017-Dec-14 12:31N 44°37' E 037°44'0 0.4
2017-Dec-14 12:00N 44°37' E 037°43'1 2.4
2017-Dec-14 11:31N 44°37' E 037°42'1 2.0
2017-Dec-14 11:01N 44°36' E 037°41'1 2.8
2017-Dec-14 10:30N 44°35' E 037°40'2 3.2
2017-Dec-14 10:01N 44°33' E 037°40'2 3.6
2017-Dec-14 09:31N 44°31' E 037°40'3 6.4
2017-Dec-14 09:01N 44°28' E 037°40'4 7.9
2017-Dec-14 08:31N 44°24' E 037°40'4 8.5
2017-Dec-14 08:01N 44°20' E 037°40'1 1.9
2017-Dec-14 07:31N 44°21' E 037°40'2 3.2
2017-Dec-14 07:00N 44°19' E 037°39'1 1.0
2017-Dec-14 06:31N 44°19' E 037°39'1 1.1
2017-Dec-14 06:01N 44°18' E 037°39'2345.4
2017-Dec-14 05:30N 44°35' E 038°01'0 0.3
2017-Dec-14 05:01N 44°35' E 038°01'2447.4
2017-Dec-14 04:30N 44°17' E 037°39'2446.3
2017-Dec-14 03:59N 44°35' E 038°01'0 0.0
2017-Dec-14 03:31N 44°35' E 038°01'0 0.0
2017-Dec-14 03:00N 44°35' E 038°01'2551.0
2017-Dec-14 02:30N 44°15' E 037°38'0 0.7
2017-Dec-14 02:01N 44°15' E 037°39'0 0.6
2017-Dec-14 01:31N 44°15' E 037°39'0 0.6
2017-Dec-14 01:00N 44°15' E 037°39'0 0.6
2017-Dec-14 00:30N 44°14' E 037°39'0 0.5
2017-Dec-14 00:00N 44°14' E 037°39'0 0.3
2017-Dec-13 23:31N 44°14' E 037°39'0 0.1
2017-Dec-13 22:43N 44°14' E 037°39'0 0.2
2017-Dec-13 22:31N 44°14' E 037°39'0 0.2
2017-Dec-13 21:58N 44°14' E 037°39'0 0.3
2017-Dec-13 21:30N 44°14' E 037°39'0 0.3
2017-Dec-13 21:01N 44°14' E 037°39'0 0.4
2017-Dec-13 20:30N 44°14' E 037°39'2 1.3
2017-Dec-13 18:58N 44°16' E 037°39'4 7.5
2017-Dec-13 18:29N 44°20' E 037°39'611.8
2017-Dec-13 18:00N 44°25' E 037°36'1 1.3
2017-Dec-13 17:31N 44°25' E 037°37'0 0.9
2017-Dec-13 17:01N 44°25' E 037°37'0 0.9
2017-Dec-13 16:31N 44°25' E 037°37'0 0.7
2017-Dec-13 16:00N 44°24' E 037°38'0 0.6
2017-Dec-13 15:30N 44°24' E 037°38'0 0.4
2017-Dec-13 15:00N 44°24' E 037°38'0 0.6
2017-Dec-13 14:30N 44°24' E 037°38'1 1.1
2017-Dec-13 14:01N 44°24' E 037°39'1 1.7
2017-Dec-13 13:31N 44°25' E 037°40'3 6.0
2017-Dec-13 13:01N 44°25' E 037°36'612.4
2017-Dec-13 12:30N 44°25' E 037°27'612.9
2017-Dec-13 12:01N 44°21' E 037°20'612.7
2017-Dec-13 11:30N 44°18' E 037°12'612.5
2017-Dec-13 11:01N 44°15' E 037°05'612.4
2017-Dec-13 10:31N 44°12' E 036°57'612.5
2017-Dec-13 10:01N 44°09' E 036°49'712.7
2017-Dec-13 09:26N 44°06' E 036°40'612.8
2017-Dec-13 08:57N 44°03' E 036°33'512.2
2017-Dec-13 08:30N 44°01' E 036°26'612.5
2017-Dec-13 08:00N 43°59' E 036°17'612.8
2017-Dec-13 07:31N 43°57' E 036°09'612.8
2017-Dec-13 07:01N 43°54' E 036°01'713.1
2017-Dec-13 06:30N 43°51' E 035°53'713.6
2017-Dec-13 05:59N 43°48' E 035°44'34113.7
2017-Dec-12 05:09N 41°02' E 029°00'210.9
2017-Dec-12 04:56N 40°59' E 028°60'3 7.3
2017-Dec-12 04:30N 40°56' E 028°60'3 6.8
2017-Dec-12 03:59N 40°53' E 029°01'510.0
2017-Dec-12 03:30N 40°49' E 029°04'3 5.1
2017-Dec-12 02:59N 40°47' E 029°06'1 1.6
2017-Dec-12 02:30N 40°47' E 029°05'1 1.9
2017-Dec-12 01:57N 40°48' E 029°04'1 2.0
2017-Dec-12 01:30N 40°49' E 029°03'1 1.9
2017-Dec-12 00:59N 40°49' E 029°02'0 1.0
2017-Dec-12 00:30N 40°49' E 029°03'0 1.0
2017-Dec-12 00:00N 40°49' E 029°03'0 1.0
2017-Dec-11 23:30N 40°48' E 029°03'1 2.4
2017-Dec-11 23:00N 40°47' E 029°04'2 4.9
2017-Dec-11 22:30N 40°45' E 029°06'2 4.2
2017-Dec-11 22:00N 40°43' E 029°07'1 1.6
2017-Dec-11 21:30N 40°42' E 029°07'1 1.8
2017-Dec-11 21:00N 40°43' E 029°06'1 1.1
2017-Dec-11 20:30N 40°43' E 029°06'1 1.1
2017-Dec-11 20:00N 40°44' E 029°05'1 1.2
2017-Dec-11 19:27N 40°44' E 029°05'1 1.2
2017-Dec-11 19:00N 40°44' E 029°05'1 1.3
2017-Dec-11 18:30N 40°45' E 029°04'1 1.7
2017-Dec-11 17:59N 40°45' E 029°03'4 7.4
2017-Dec-11 17:30N 40°47' E 028°59'713.7
2017-Dec-11 17:00N 40°50' E 028°50'814.4
2017-Dec-11 16:27N 40°50' E 028°40'  

Dump ship's entire track history